createdAt,value
2022-12-31T00:00:06.564Z,93.85
2022-12-31T00:01:06.605Z,93.74
2022-12-31T00:02:06.574Z,93.74
2022-12-31T00:03:06.576Z,93.44
2022-12-31T00:04:06.492Z,93.74
2022-12-31T00:05:06.481Z,93.74
2022-12-31T00:06:06.487Z,93.74
2022-12-31T00:07:06.450Z,93.74
2022-12-31T00:08:06.561Z,93.95
2022-12-31T00:09:06.451Z,93.64
2022-12-31T00:10:06.424Z,93.64
2022-12-31T00:11:06.432Z,93.54
2022-12-31T00:12:06.400Z,93.33
2022-12-31T00:13:06.391Z,93.44
2022-12-31T00:14:06.387Z,93.64
2022-12-31T00:15:06.364Z,93.44
2022-12-31T00:16:11.804Z,93.64
2022-12-31T00:17:06.424Z,93.64
2022-12-31T00:18:06.345Z,93.64
2022-12-31T00:19:06.341Z,93.74
2022-12-31T00:20:06.334Z,93.74
2022-12-31T00:21:06.341Z,93.64
2022-12-31T00:22:06.300Z,93.64
2022-12-31T00:23:06.313Z,93.74
2022-12-31T00:24:06.297Z,93.95
2022-12-31T00:25:06.305Z,93.64
2022-12-31T00:26:06.269Z,93.79
2022-12-31T00:27:06.245Z,93.95
2022-12-31T00:28:06.235Z,94.10
2022-12-31T00:29:06.280Z,93.74
2022-12-31T00:30:06.214Z,93.89
2022-12-31T00:31:06.287Z,94.10
2022-12-31T00:32:06.210Z,94.20
2022-12-31T00:33:06.214Z,94.10
2022-12-31T00:34:06.170Z,94.20
2022-12-31T00:35:06.182Z,94.30
2022-12-31T00:36:06.174Z,94.30
2022-12-31T00:37:06.161Z,94.30
2022-12-31T00:38:06.134Z,94.30
2022-12-31T00:39:06.121Z,94.30
2022-12-31T00:40:06.121Z,94.51
2022-12-31T00:41:06.175Z,94.51
2022-12-31T00:42:06.090Z,94.30
2022-12-31T00:43:06.106Z,94.20
2022-12-31T00:44:06.091Z,94.30
2022-12-31T00:45:06.056Z,94.20
2022-12-31T00:46:06.134Z,94.20
2022-12-31T00:47:06.069Z,94.30
2022-12-31T00:48:06.029Z,94.20
2022-12-31T00:49:06.043Z,94.30
2022-12-31T00:50:06.009Z,94.40
2022-12-31T00:51:06.041Z,94.51
2022-12-31T00:52:05.998Z,94.51
2022-12-31T00:53:05.999Z,94.76
2022-12-31T00:54:05.972Z,94.85
2022-12-31T00:55:05.963Z,94.85
2022-12-31T00:56:05.953Z,94.85
2022-12-31T00:57:05.957Z,94.85
2022-12-31T00:58:05.924Z,94.96
2022-12-31T00:59:05.925Z,95.06
2022-12-31T01:00:05.909Z,95.06
2022-12-31T01:01:06.009Z,94.96
2022-12-31T01:02:06.063Z,94.96
2022-12-31T01:03:05.997Z,94.96
2022-12-31T01:04:05.869Z,94.96
2022-12-31T01:05:05.882Z,95.17
2022-12-31T01:06:05.869Z,95.17
2022-12-31T01:07:05.880Z,95.27
2022-12-31T01:08:05.834Z,95.37
2022-12-31T01:09:05.808Z,95.37
2022-12-31T01:10:05.801Z,95.37
2022-12-31T01:11:05.824Z,95.47
2022-12-31T01:12:05.792Z,95.47
2022-12-31T01:13:05.806Z,95.57
2022-12-31T01:14:05.794Z,95.57
2022-12-31T01:15:05.770Z,95.68
2022-12-31T01:16:05.783Z,95.68
2022-12-31T01:17:05.765Z,95.68
2022-12-31T01:18:05.729Z,95.57
2022-12-31T01:19:05.729Z,95.57
2022-12-31T01:20:05.713Z,95.37
2022-12-31T01:21:05.714Z,95.47
2022-12-31T01:22:05.727Z,95.47
2022-12-31T01:23:05.668Z,95.37
2022-12-31T01:24:05.676Z,95.37
2022-12-31T01:25:05.699Z,95.37
2022-12-31T01:26:05.638Z,95.47
2022-12-31T01:27:05.657Z,95.43
2022-12-31T01:28:05.638Z,95.43
2022-12-31T01:29:05.632Z,95.32
2022-12-31T01:30:05.692Z,95.37
2022-12-31T01:31:05.650Z,95.43
2022-12-31T01:32:05.631Z,95.43
2022-12-31T01:33:05.567Z,95.23
2022-12-31T01:34:05.577Z,95.12
2022-12-31T01:35:05.543Z,95.23
2022-12-31T01:36:05.606Z,95.32
2022-12-31T01:37:05.631Z,95.32
2022-12-31T01:38:05.576Z,95.43
2022-12-31T01:39:05.553Z,95.43
2022-12-31T01:40:05.620Z,95.32
2022-12-31T01:41:05.482Z,95.43
2022-12-31T01:42:05.487Z,95.32
2022-12-31T01:43:05.621Z,95.32
2022-12-31T01:44:05.471Z,95.43
2022-12-31T01:45:05.440Z,95.53
2022-12-31T01:46:05.437Z,95.64
2022-12-31T01:47:05.446Z,95.64
2022-12-31T01:48:05.444Z,95.64
2022-12-31T01:49:05.411Z,95.49
2022-12-31T01:50:05.400Z,95.59
2022-12-31T01:51:05.990Z,95.59
2022-12-31T01:52:05.388Z,95.49
2022-12-31T01:53:05.353Z,95.49
2022-12-31T01:54:05.355Z,95.49
2022-12-31T01:55:05.362Z,95.39
2022-12-31T01:56:05.330Z,95.49
2022-12-31T01:57:05.335Z,95.39
2022-12-31T01:58:05.311Z,95.24
2022-12-31T01:59:05.302Z,95.14
2022-12-31T02:00:05.313Z,95.14
2022-12-31T02:01:05.306Z,95.14
2022-12-31T02:02:05.384Z,95.14
2022-12-31T02:03:05.365Z,95.14
2022-12-31T02:04:05.249Z,95.24
2022-12-31T02:05:05.235Z,95.24
2022-12-31T02:06:05.230Z,95.34
2022-12-31T02:07:05.229Z,95.24
2022-12-31T02:08:05.216Z,95.20
2022-12-31T02:09:05.196Z,95.09
2022-12-31T02:10:05.265Z,94.99
2022-12-31T02:11:05.166Z,94.99
2022-12-31T02:12:05.176Z,94.78
2022-12-31T02:13:05.147Z,94.78
2022-12-31T02:14:05.151Z,94.89
2022-12-31T02:15:05.130Z,94.74
2022-12-31T02:16:05.157Z,94.74
2022-12-31T02:17:05.128Z,94.54
2022-12-31T02:18:05.097Z,94.43
2022-12-31T02:19:05.099Z,94.43
2022-12-31T02:20:05.080Z,94.43
2022-12-31T02:21:05.076Z,94.54
2022-12-31T02:22:05.092Z,94.64
2022-12-31T02:23:05.041Z,94.64
2022-12-31T02:24:05.046Z,94.64
2022-12-31T02:25:05.027Z,94.49
2022-12-31T02:26:05.021Z,94.29
2022-12-31T02:27:05.019Z,94.39
2022-12-31T02:28:04.994Z,94.39
2022-12-31T02:29:04.987Z,94.49
2022-12-31T02:30:05.011Z,94.49
2022-12-31T02:31:04.983Z,94.59
2022-12-31T02:32:04.984Z,94.49
2022-12-31T02:33:04.981Z,94.49
2022-12-31T02:34:04.941Z,94.39
2022-12-31T02:35:04.929Z,94.29
2022-12-31T02:36:04.919Z,94.33
2022-12-31T02:37:04.975Z,94.33
2022-12-31T02:38:04.900Z,94.23
2022-12-31T02:39:04.879Z,94.33
2022-12-31T02:40:04.892Z,94.54
2022-12-31T02:41:04.881Z,94.78
2022-12-31T02:42:04.881Z,94.99
2022-12-31T02:43:04.851Z,95.09
2022-12-31T02:44:04.841Z,95.20
2022-12-31T02:45:04.818Z,95.40
2022-12-31T02:46:04.929Z,95.50
2022-12-31T02:47:04.834Z,95.50
2022-12-31T02:48:04.793Z,95.50
2022-12-31T02:49:04.779Z,95.61
2022-12-31T02:50:04.781Z,95.70
2022-12-31T02:51:04.762Z,95.81
2022-12-31T02:52:04.799Z,95.86
2022-12-31T02:53:04.740Z,95.86
2022-12-31T02:54:04.757Z,95.86
2022-12-31T02:55:04.720Z,95.95
2022-12-31T02:56:04.727Z,95.95
2022-12-31T02:57:04.745Z,95.86
2022-12-31T02:58:04.702Z,95.86
2022-12-31T02:59:04.679Z,95.86
2022-12-31T03:00:04.701Z,95.86
2022-12-31T03:01:04.754Z,95.86
2022-12-31T03:02:04.731Z,95.95
2022-12-31T03:03:04.661Z,95.95
2022-12-31T03:04:04.629Z,95.95
2022-12-31T03:05:04.605Z,95.86
2022-12-31T03:06:04.638Z,95.86
2022-12-31T03:07:04.624Z,95.86
2022-12-31T03:08:04.592Z,95.86
2022-12-31T03:09:04.587Z,95.86
2022-12-31T03:10:04.567Z,95.86
2022-12-31T03:11:04.543Z,95.75
2022-12-31T03:12:04.611Z,95.75
2022-12-31T03:13:04.526Z,95.70
2022-12-31T03:14:04.533Z,95.61
2022-12-31T03:15:04.534Z,95.50
2022-12-31T03:16:04.543Z,95.50
2022-12-31T03:17:04.506Z,95.40
2022-12-31T03:18:04.492Z,95.29
2022-12-31T03:19:04.492Z,95.20
2022-12-31T03:20:04.456Z,95.09
2022-12-31T03:21:04.467Z,95.09
2022-12-31T03:22:04.443Z,94.99
2022-12-31T03:23:04.420Z,94.84
2022-12-31T03:24:04.423Z,94.74
2022-12-31T03:25:04.424Z,94.64
2022-12-31T03:26:04.416Z,94.43
2022-12-31T03:27:04.388Z,94.43
2022-12-31T03:28:04.381Z,94.43
2022-12-31T03:29:04.391Z,94.43
2022-12-31T03:30:04.361Z,94.43
2022-12-31T03:31:04.442Z,94.43
2022-12-31T03:32:04.352Z,94.43
2022-12-31T03:33:04.331Z,94.43
2022-12-31T03:34:04.328Z,94.33
2022-12-31T03:35:04.305Z,94.29
2022-12-31T03:36:04.335Z,94.39
2022-12-31T03:37:04.346Z,94.39
2022-12-31T03:38:04.295Z,94.49
2022-12-31T03:39:04.259Z,94.49
2022-12-31T03:40:04.259Z,94.29
2022-12-31T03:41:04.244Z,94.39
2022-12-31T03:42:04.263Z,94.29
2022-12-31T03:43:04.221Z,94.29
2022-12-31T03:44:04.246Z,94.29
2022-12-31T03:45:04.209Z,94.39
2022-12-31T03:46:04.258Z,94.18
2022-12-31T03:47:04.211Z,94.18
2022-12-31T03:48:04.170Z,94.18
2022-12-31T03:49:04.157Z,94.08
2022-12-31T03:50:04.149Z,94.08
2022-12-31T03:51:04.146Z,94.08
2022-12-31T03:52:04.153Z,94.04
2022-12-31T03:53:04.128Z,94.18
2022-12-31T03:54:04.123Z,94.14
2022-12-31T03:55:04.098Z,94.04
2022-12-31T03:56:04.118Z,93.93
2022-12-31T03:57:04.129Z,94.04
2022-12-31T03:58:04.073Z,94.14
2022-12-31T03:59:04.062Z,94.04
2022-12-31T04:00:04.046Z,94.24
2022-12-31T04:01:04.155Z,94.14
2022-12-31T04:02:04.213Z,94.24
2022-12-31T04:03:04.105Z,94.24
2022-12-31T04:04:04.005Z,94.24
2022-12-31T04:05:03.993Z,94.24
2022-12-31T04:06:04.006Z,94.14
2022-12-31T04:07:04.030Z,94.14
2022-12-31T04:08:03.963Z,94.14
2022-12-31T04:09:03.979Z,94.14
2022-12-31T04:10:03.954Z,94.14
2022-12-31T04:11:03.944Z,94.24
2022-12-31T04:12:03.943Z,94.14
2022-12-31T04:13:03.925Z,93.93
2022-12-31T04:14:03.919Z,93.89
2022-12-31T04:15:03.891Z,93.89
2022-12-31T04:16:03.951Z,93.79
2022-12-31T04:17:03.886Z,93.69
2022-12-31T04:18:03.869Z,93.69
2022-12-31T04:19:03.873Z,93.69
2022-12-31T04:20:03.863Z,93.59
2022-12-31T04:21:03.847Z,93.59
2022-12-31T04:22:03.820Z,93.59
2022-12-31T04:23:03.859Z,93.59
2022-12-31T04:24:03.802Z,93.48
2022-12-31T04:25:03.792Z,93.48
2022-12-31T04:26:03.845Z,93.59
2022-12-31T04:27:07.789Z,93.59
2022-12-31T04:28:03.769Z,93.59
2022-12-31T04:29:03.752Z,93.59
2022-12-31T04:30:03.814Z,93.59
2022-12-31T04:31:03.764Z,93.59
2022-12-31T04:32:03.824Z,93.44
2022-12-31T04:33:03.701Z,93.33
2022-12-31T04:34:03.709Z,93.33
2022-12-31T04:35:03.714Z,93.24
2022-12-31T04:36:03.729Z,93.33
2022-12-31T04:37:03.687Z,93.33
2022-12-31T04:38:03.673Z,93.54
2022-12-31T04:39:03.643Z,93.54
2022-12-31T04:40:06.267Z,93.44
2022-12-31T04:41:03.626Z,93.44
2022-12-31T04:42:03.658Z,93.44
2022-12-31T04:43:03.602Z,93.33
2022-12-31T04:44:03.610Z,93.33
2022-12-31T04:45:03.606Z,93.29
2022-12-31T04:46:03.620Z,93.29
2022-12-31T04:47:03.562Z,93.40
2022-12-31T04:48:03.642Z,93.65
2022-12-31T04:49:03.558Z,93.60
2022-12-31T04:50:03.553Z,93.70
2022-12-31T04:51:03.537Z,93.91
2022-12-31T04:52:04.489Z,94.06
2022-12-31T04:53:03.539Z,94.21
2022-12-31T04:54:03.493Z,94.36
2022-12-31T04:55:03.477Z,94.32
2022-12-31T04:56:03.487Z,94.21
2022-12-31T04:57:03.461Z,94.32
2022-12-31T04:58:03.477Z,94.21
2022-12-31T04:59:03.449Z,94.21
2022-12-31T05:00:03.456Z,94.21
2022-12-31T05:01:04.436Z,94.11
2022-12-31T05:02:03.656Z,94.21
2022-12-31T05:03:03.480Z,94.21
2022-12-31T05:04:03.387Z,94.11
2022-12-31T05:05:03.379Z,94.01
2022-12-31T05:06:03.378Z,94.01
2022-12-31T05:07:03.376Z,94.01
2022-12-31T05:08:03.356Z,94.11
2022-12-31T05:09:03.342Z,93.86
2022-12-31T05:10:03.341Z,93.76
2022-12-31T05:11:03.320Z,93.76
2022-12-31T05:12:03.301Z,93.76
2022-12-31T05:13:03.309Z,93.76
2022-12-31T05:14:03.300Z,93.76
2022-12-31T05:15:03.283Z,93.76
2022-12-31T05:16:03.273Z,93.66
2022-12-31T05:17:03.289Z,93.76
2022-12-31T05:18:03.274Z,93.76
2022-12-31T05:19:03.234Z,93.76
2022-12-31T05:20:03.225Z,93.86
2022-12-31T05:21:03.221Z,93.86
2022-12-31T05:22:03.221Z,93.76
2022-12-31T05:23:03.211Z,93.76
2022-12-31T05:24:03.183Z,93.66
2022-12-31T05:25:03.178Z,93.66
2022-12-31T05:26:03.171Z,93.76
2022-12-31T05:27:03.179Z,93.66
2022-12-31T05:28:03.177Z,93.62
2022-12-31T05:29:03.140Z,93.62
2022-12-31T05:30:03.985Z,93.62
2022-12-31T05:31:03.183Z,93.62
2022-12-31T05:32:03.107Z,93.51
2022-12-31T05:33:03.186Z,93.71
2022-12-31T05:34:03.137Z,94.12
2022-12-31T05:35:03.111Z,94.74
2022-12-31T05:36:03.103Z,95.15
2022-12-31T05:37:03.043Z,95.56
2022-12-31T05:38:03.098Z,95.96
2022-12-31T05:39:03.029Z,96.37
2022-12-31T05:40:03.020Z,96.98
2022-12-31T05:41:03.042Z,97.60
2022-12-31T05:42:02.995Z,98.11
2022-12-31T05:43:03.011Z,98.93
2022-12-31T05:44:02.994Z,99.58
2022-12-31T05:45:02.968Z,99.99
2022-12-31T05:46:03.052Z,99.99
2022-12-31T05:47:02.997Z,99.99
2022-12-31T05:48:02.966Z,99.99
2022-12-31T05:49:02.926Z,99.99
2022-12-31T05:50:02.973Z,99.99
2022-12-31T05:51:02.978Z,99.99
2022-12-31T05:52:02.890Z,99.99
2022-12-31T05:53:02.949Z,99.99
2022-12-31T05:54:02.899Z,99.99
2022-12-31T05:55:02.865Z,99.99
2022-12-31T05:56:02.867Z,99.99
2022-12-31T05:57:02.842Z,99.99
2022-12-31T05:58:02.859Z,99.99
2022-12-31T05:59:02.828Z,99.99
2022-12-31T06:00:02.803Z,99.99
2022-12-31T06:01:02.879Z,99.99
2022-12-31T06:02:02.807Z,99.99
2022-12-31T06:03:02.984Z,99.99
2022-12-31T06:04:02.847Z,99.99
2022-12-31T06:05:02.779Z,99.99
2022-12-31T06:06:02.751Z,99.99
2022-12-31T06:07:02.736Z,99.99
2022-12-31T06:08:02.751Z,99.99
2022-12-31T06:09:02.721Z,99.99
2022-12-31T06:10:02.703Z,99.99
2022-12-31T06:11:02.694Z,99.99
2022-12-31T06:12:02.695Z,99.99
2022-12-31T06:13:02.748Z,99.99
2022-12-31T06:14:02.680Z,99.99
2022-12-31T06:15:02.661Z,99.99
2022-12-31T06:16:02.710Z,99.99
2022-12-31T06:17:02.658Z,99.99
2022-12-31T06:18:02.638Z,99.99
2022-12-31T06:19:02.627Z,99.99
2022-12-31T06:20:07.300Z,99.99
2022-12-31T06:21:02.604Z,99.99
2022-12-31T06:22:02.623Z,99.99
2022-12-31T06:23:02.566Z,99.99
2022-12-31T06:24:02.567Z,99.99
2022-12-31T06:25:02.570Z,99.99
2022-12-31T06:26:02.567Z,99.99
2022-12-31T06:27:02.555Z,99.99
2022-12-31T06:28:02.510Z,99.99
2022-12-31T06:29:02.535Z,99.99
2022-12-31T06:30:02.511Z,99.99
2022-12-31T06:31:02.556Z,99.99
2022-12-31T06:32:02.494Z,99.99
2022-12-31T06:33:02.502Z,99.99
2022-12-31T06:34:02.467Z,99.99
2022-12-31T06:35:02.456Z,99.99
2022-12-31T06:36:02.441Z,99.99
2022-12-31T06:37:02.422Z,99.99
2022-12-31T06:38:02.457Z,99.90
2022-12-31T06:39:02.430Z,99.69
2022-12-31T06:40:02.394Z,99.69
2022-12-31T06:41:02.387Z,99.69
2022-12-31T06:42:02.384Z,99.59
2022-12-31T06:43:02.396Z,99.29
2022-12-31T06:44:02.360Z,99.08
2022-12-31T06:45:02.295Z,98.73
2022-12-31T06:46:02.382Z,98.43
2022-12-31T06:47:02.360Z,98.43
2022-12-31T06:48:02.287Z,98.43
2022-12-31T06:49:02.258Z,98.43
2022-12-31T06:50:02.235Z,98.22
2022-12-31T06:51:02.294Z,98.02
2022-12-31T06:52:02.291Z,97.91
2022-12-31T06:53:02.225Z,97.50
2022-12-31T06:54:02.201Z,97.16
2022-12-31T06:55:02.232Z,97.05
2022-12-31T06:56:02.173Z,96.84
2022-12-31T06:57:02.206Z,96.64
2022-12-31T06:58:02.163Z,96.54
2022-12-31T06:59:02.168Z,96.39
2022-12-31T07:00:02.184Z,96.44
2022-12-31T07:01:02.207Z,96.19
2022-12-31T07:02:02.291Z,95.98
2022-12-31T07:03:02.175Z,95.78
2022-12-31T07:04:02.152Z,95.48
2022-12-31T07:05:02.083Z,95.58
2022-12-31T07:06:02.125Z,95.37
2022-12-31T07:07:02.071Z,95.17
2022-12-31T07:08:02.677Z,95.03
2022-12-31T07:09:03.165Z,95.03
2022-12-31T07:10:03.097Z,94.72
2022-12-31T07:11:02.456Z,94.42
2022-12-31T07:12:02.168Z,94.52
2022-12-31T07:13:02.013Z,94.31
2022-12-31T07:14:01.980Z,94.01
2022-12-31T07:15:01.989Z,94.01
2022-12-31T07:16:02.146Z,93.76
2022-12-31T07:17:02.021Z,93.66
2022-12-31T07:18:01.977Z,93.76
2022-12-31T07:19:01.943Z,93.35
2022-12-31T07:20:01.956Z,93.25
2022-12-31T07:21:01.921Z,92.94
2022-12-31T07:22:01.914Z,92.94
2022-12-31T07:23:01.911Z,92.94
2022-12-31T07:24:01.900Z,92.94
2022-12-31T07:25:01.879Z,92.84
2022-12-31T07:26:01.860Z,92.74
2022-12-31T07:27:01.862Z,92.60
2022-12-31T07:28:01.869Z,92.60
2022-12-31T07:29:01.839Z,92.40
2022-12-31T07:30:01.864Z,92.19
2022-12-31T07:31:01.841Z,91.99
2022-12-31T07:32:01.830Z,91.78
2022-12-31T07:33:01.826Z,91.68
2022-12-31T07:34:01.788Z,91.78
2022-12-31T07:35:01.776Z,91.78
2022-12-31T07:36:01.758Z,91.58
2022-12-31T07:37:01.772Z,91.68
2022-12-31T07:38:01.772Z,91.38
2022-12-31T07:39:01.735Z,91.23
2022-12-31T07:40:01.748Z,91.23
2022-12-31T07:41:07.303Z,90.92
2022-12-31T07:42:01.695Z,90.83
2022-12-31T07:43:01.721Z,90.83
2022-12-31T07:44:01.685Z,90.72
2022-12-31T07:45:01.663Z,90.31
2022-12-31T07:46:01.673Z,90.48
2022-12-31T07:47:01.738Z,90.27
2022-12-31T07:48:02.912Z,90.17
2022-12-31T07:49:01.630Z,90.27
2022-12-31T07:50:01.637Z,90.07
2022-12-31T07:51:01.609Z,89.87
2022-12-31T07:52:01.593Z,89.97
2022-12-31T07:53:01.657Z,89.76
2022-12-31T07:54:01.583Z,89.56
2022-12-31T07:55:01.580Z,89.56
2022-12-31T07:56:01.565Z,89.46
2022-12-31T07:57:01.543Z,89.36
2022-12-31T07:58:01.546Z,89.46
2022-12-31T07:59:01.522Z,89.22
2022-12-31T08:00:01.507Z,89.15
2022-12-31T08:01:01.629Z,89.42
2022-12-31T08:02:01.571Z,89.11
2022-12-31T08:03:01.595Z,89.01
2022-12-31T08:04:01.523Z,88.91
2022-12-31T08:05:01.464Z,88.91
2022-12-31T08:06:01.459Z,88.81
2022-12-31T08:07:01.466Z,88.50
2022-12-31T08:08:01.448Z,88.50
2022-12-31T08:09:01.455Z,88.50
2022-12-31T08:10:01.408Z,88.60
2022-12-31T08:11:01.395Z,88.71
2022-12-31T08:12:01.412Z,88.40
2022-12-31T08:13:01.381Z,88.30
2022-12-31T08:14:01.380Z,87.95
2022-12-31T08:15:01.414Z,87.75
2022-12-31T08:16:01.388Z,87.85
2022-12-31T08:17:01.335Z,87.95
2022-12-31T08:18:01.326Z,87.75
2022-12-31T08:19:01.329Z,87.95
2022-12-31T08:20:01.297Z,88.06
2022-12-31T08:21:01.304Z,87.95
2022-12-31T08:22:01.275Z,87.95
2022-12-31T08:23:01.272Z,87.85
2022-12-31T08:24:01.539Z,87.85
2022-12-31T08:25:01.423Z,87.95
2022-12-31T08:26:01.270Z,88.06
2022-12-31T08:27:01.245Z,87.85
2022-12-31T08:28:01.252Z,87.65
2022-12-31T08:29:01.218Z,87.75
2022-12-31T08:30:01.211Z,87.55
2022-12-31T08:31:01.200Z,87.24
2022-12-31T08:32:01.228Z,87.34
2022-12-31T08:33:01.192Z,87.14
2022-12-31T08:34:05.746Z,87.30
2022-12-31T08:35:01.175Z,87.00
2022-12-31T08:36:01.126Z,86.90
2022-12-31T08:37:01.138Z,87.10
2022-12-31T08:38:01.108Z,87.10
2022-12-31T08:39:01.125Z,87.20
2022-12-31T08:40:01.105Z,86.69
2022-12-31T08:41:01.104Z,86.80
2022-12-31T08:42:01.126Z,86.25
2022-12-31T08:43:01.069Z,86.05
2022-12-31T08:44:01.140Z,86.15
2022-12-31T08:45:01.039Z,86.05
2022-12-31T08:46:01.118Z,85.94
2022-12-31T08:47:01.020Z,85.94
2022-12-31T08:48:01.025Z,85.74
2022-12-31T08:49:01.025Z,85.53
2022-12-31T08:50:00.986Z,85.53
2022-12-31T08:51:01.039Z,85.53
2022-12-31T08:52:00.976Z,85.33
2022-12-31T08:53:00.980Z,85.09
2022-12-31T08:54:00.952Z,84.69
2022-12-31T08:55:00.942Z,84.28
2022-12-31T08:56:00.956Z,84.24
2022-12-31T08:57:00.938Z,84.14
2022-12-31T08:58:00.899Z,84.24
2022-12-31T08:59:00.922Z,84.14
2022-12-31T09:00:00.886Z,84.04
2022-12-31T09:01:00.957Z,84.64
2022-12-31T09:02:01.043Z,84.34
2022-12-31T09:03:00.886Z,84.44
2022-12-31T09:04:00.894Z,84.85
2022-12-31T09:05:00.833Z,84.78
2022-12-31T09:06:00.857Z,84.34
2022-12-31T09:07:00.845Z,84.04
2022-12-31T09:08:00.803Z,84.14
2022-12-31T09:09:00.840Z,84.04
2022-12-31T09:10:00.794Z,84.14
2022-12-31T09:11:00.797Z,84.14
2022-12-31T09:12:00.761Z,84.24
2022-12-31T09:13:00.796Z,84.14
2022-12-31T09:14:00.774Z,84.14
2022-12-31T09:15:00.752Z,83.94
2022-12-31T09:16:00.794Z,83.63
2022-12-31T09:17:00.837Z,83.63
2022-12-31T09:18:00.695Z,83.53
2022-12-31T09:19:00.724Z,83.53
2022-12-31T09:20:00.732Z,83.59
2022-12-31T09:21:00.708Z,83.39
2022-12-31T09:22:00.673Z,83.29
2022-12-31T09:23:00.649Z,82.98
2022-12-31T09:24:05.943Z,82.58
2022-12-31T09:25:00.634Z,82.58
2022-12-31T09:26:00.661Z,82.34
2022-12-31T09:27:00.623Z,82.24
2022-12-31T09:28:00.605Z,82.24
2022-12-31T09:29:00.601Z,82.14
2022-12-31T09:30:00.570Z,82.34
2022-12-31T09:31:00.557Z,82.10
2022-12-31T09:32:00.565Z,81.69
2022-12-31T09:33:01.486Z,81.90
2022-12-31T09:34:00.558Z,81.59
2022-12-31T09:35:00.527Z,81.29
2022-12-31T09:36:00.541Z,81.05
2022-12-31T09:37:00.496Z,80.74
2022-12-31T09:38:00.503Z,80.54
2022-12-31T09:39:00.485Z,80.94
2022-12-31T09:40:00.470Z,80.54
2022-12-31T09:41:00.469Z,80.84
2022-12-31T09:42:00.493Z,80.64
2022-12-31T09:43:00.444Z,80.44
2022-12-31T09:44:01.454Z,80.74
2022-12-31T09:45:00.420Z,80.44
2022-12-31T09:46:00.560Z,80.34
2022-12-31T09:47:00.402Z,80.34
2022-12-31T09:48:00.411Z,80.54
2022-12-31T09:49:00.387Z,80.34
2022-12-31T09:50:00.361Z,80.64
2022-12-31T09:51:00.360Z,80.34
2022-12-31T09:52:00.337Z,80.20
2022-12-31T09:53:00.396Z,80.10
2022-12-31T09:54:00.340Z,80.10
2022-12-31T09:55:00.356Z,79.69
2022-12-31T09:56:00.433Z,79.59
2022-12-31T09:57:00.286Z,79.25
2022-12-31T09:58:00.284Z,79.15
2022-12-31T09:59:00.281Z,79.05
2022-12-31T10:00:00.256Z,78.64
2022-12-31T10:01:00.411Z,79.01
2022-12-31T10:02:00.469Z,78.71
2022-12-31T10:03:00.264Z,78.41
2022-12-31T10:04:00.236Z,78.41
2022-12-31T10:05:00.210Z,78.20
2022-12-31T10:06:00.262Z,78.30
2022-12-31T10:07:00.207Z,78.00
2022-12-31T10:08:00.182Z,77.90
2022-12-31T10:09:00.191Z,77.90
2022-12-31T10:10:00.220Z,78.20
2022-12-31T10:11:00.156Z,78.20
2022-12-31T10:12:06.164Z,78.64
2022-12-31T10:13:00.126Z,78.85
2022-12-31T10:14:00.129Z,78.95
2022-12-31T10:15:00.139Z,79.15
2022-12-31T10:16:00.100Z,79.15
2022-12-31T10:17:00.117Z,79.15
2022-12-31T10:18:00.133Z,79.25
2022-12-31T10:19:00.076Z,79.35
2022-12-31T10:20:00.086Z,79.15
2022-12-31T10:21:00.043Z,79.15
2022-12-31T10:22:00.117Z,79.46
2022-12-31T10:23:00.018Z,79.25
2022-12-31T10:24:00.047Z,79.15
2022-12-31T10:24:59.982Z,79.05
2022-12-31T10:26:00.008Z,78.91
2022-12-31T10:26:59.962Z,78.85
2022-12-31T10:27:59.973Z,79.05
2022-12-31T10:28:59.987Z,79.15
2022-12-31T10:29:59.946Z,79.35
2022-12-31T10:30:59.977Z,79.46
2022-12-31T10:31:59.927Z,79.46
2022-12-31T10:32:59.925Z,79.35
2022-12-31T10:33:59.914Z,79.35
2022-12-31T10:34:59.911Z,79.46
2022-12-31T10:35:59.886Z,79.35
2022-12-31T10:36:59.856Z,79.46
2022-12-31T10:37:59.872Z,79.96
2022-12-31T10:38:59.854Z,79.55
2022-12-31T10:39:59.843Z,79.75
2022-12-31T10:40:59.837Z,80.06
2022-12-31T10:41:59.818Z,79.75
2022-12-31T10:42:59.821Z,79.86
2022-12-31T10:43:59.816Z,79.86
2022-12-31T10:44:59.837Z,79.86
2022-12-31T10:45:59.778Z,79.96
2022-12-31T10:46:59.763Z,79.96
2022-12-31T10:47:59.747Z,79.86
2022-12-31T10:48:59.747Z,79.86
2022-12-31T10:49:59.729Z,80.06
2022-12-31T10:50:59.712Z,79.86
2022-12-31T10:51:59.709Z,79.86
2022-12-31T10:52:59.696Z,80.06
2022-12-31T10:53:59.704Z,80.06
2022-12-31T10:54:59.704Z,79.75
2022-12-31T10:55:59.681Z,79.96
2022-12-31T10:56:59.651Z,79.96
2022-12-31T10:58:04.037Z,79.96
2022-12-31T10:58:59.659Z,79.96
2022-12-31T10:59:59.630Z,79.86
2022-12-31T11:00:59.837Z,80.06
2022-12-31T11:01:59.670Z,80.16
2022-12-31T11:02:59.705Z,80.16
2022-12-31T11:03:59.601Z,80.36
2022-12-31T11:04:59.578Z,80.26
2022-12-31T11:05:59.569Z,80.46
2022-12-31T11:06:59.564Z,80.26
2022-12-31T11:07:59.544Z,80.77
2022-12-31T11:08:59.543Z,81.07
2022-12-31T11:09:59.522Z,81.17
2022-12-31T11:10:59.503Z,81.37
2022-12-31T11:11:59.509Z,81.37
2022-12-31T11:12:59.477Z,81.57
2022-12-31T11:13:59.476Z,81.57
2022-12-31T11:14:59.466Z,81.78
2022-12-31T11:15:59.485Z,81.68
2022-12-31T11:16:59.658Z,81.68
2022-12-31T11:17:59.470Z,81.78
2022-12-31T11:18:59.690Z,81.88
2022-12-31T11:19:59.422Z,81.48
2022-12-31T11:20:59.402Z,81.48
2022-12-31T11:21:59.424Z,81.27
2022-12-31T11:22:59.395Z,81.48
2022-12-31T11:23:59.374Z,81.48
2022-12-31T11:24:59.384Z,81.48
2022-12-31T11:25:59.365Z,81.48
2022-12-31T11:26:59.363Z,81.48
2022-12-31T11:27:59.343Z,81.27
2022-12-31T11:28:59.323Z,81.27
2022-12-31T11:29:59.339Z,80.97
2022-12-31T11:30:59.337Z,80.66
2022-12-31T11:31:59.325Z,80.66
2022-12-31T11:32:59.291Z,80.36
2022-12-31T11:33:59.281Z,80.22
2022-12-31T11:34:59.280Z,80.02
2022-12-31T11:35:59.251Z,80.32
2022-12-31T11:36:59.234Z,80.12
2022-12-31T11:37:59.222Z,80.22
2022-12-31T11:38:59.219Z,80.12
2022-12-31T11:39:59.262Z,80.02
2022-12-31T11:40:59.216Z,79.92
2022-12-31T11:41:59.201Z,80.12
2022-12-31T11:42:59.231Z,79.21
2022-12-31T11:43:59.176Z,79.32
2022-12-31T11:44:59.189Z,79.01
2022-12-31T11:45:59.216Z,78.88
2022-12-31T11:46:59.134Z,78.88
2022-12-31T11:48:59.140Z,78.77
2022-12-31T11:49:59.132Z,78.37
2022-12-31T11:50:59.078Z,78.27
2022-12-31T11:51:59.111Z,78.37
2022-12-31T11:52:59.084Z,77.86
2022-12-31T11:53:59.066Z,78.06
2022-12-31T11:54:59.052Z,77.73
2022-12-31T11:55:59.038Z,77.73
2022-12-31T11:56:59.035Z,77.66
2022-12-31T11:57:59.018Z,77.53
2022-12-31T11:58:59.030Z,77.73
2022-12-31T11:59:59.022Z,77.22
2022-12-31T12:00:59.033Z,77.12
2022-12-31T12:01:58.990Z,77.12
2022-12-31T12:02:59.037Z,76.72
2022-12-31T12:03:58.998Z,76.92
2022-12-31T12:04:58.968Z,76.92
2022-12-31T12:05:58.957Z,76.72
2022-12-31T12:06:58.932Z,76.72
2022-12-31T12:07:58.908Z,76.62
2022-12-31T12:08:58.900Z,76.62
2022-12-31T12:09:58.949Z,76.51
2022-12-31T12:10:58.887Z,76.42
2022-12-31T12:11:58.893Z,76.28
2022-12-31T12:12:58.865Z,76.18
2022-12-31T12:13:58.859Z,76.07
2022-12-31T12:14:58.848Z,75.98
2022-12-31T12:15:58.951Z,76.07
2022-12-31T12:17:04.330Z,75.87
2022-12-31T12:17:58.817Z,75.77
2022-12-31T12:18:58.798Z,75.67
2022-12-31T12:19:58.791Z,75.54
2022-12-31T12:20:58.779Z,75.43
2022-12-31T12:21:58.781Z,75.23
2022-12-31T12:22:58.773Z,75.03
2022-12-31T12:23:58.752Z,75.23
2022-12-31T12:24:58.766Z,75.13
2022-12-31T12:25:58.735Z,75.23
2022-12-31T12:26:58.734Z,75.34
2022-12-31T12:27:58.702Z,75.23
2022-12-31T12:28:58.683Z,75.34
2022-12-31T12:29:58.696Z,75.57
2022-12-31T12:30:58.745Z,75.57
2022-12-31T12:31:58.675Z,75.87
2022-12-31T12:32:58.664Z,75.57
2022-12-31T12:33:58.648Z,75.57
2022-12-31T12:34:58.663Z,75.57
2022-12-31T12:35:58.630Z,75.77
2022-12-31T12:36:58.639Z,75.57
2022-12-31T12:37:58.605Z,75.77
2022-12-31T12:38:58.582Z,75.67
2022-12-31T12:39:58.637Z,75.77
2022-12-31T12:40:58.597Z,75.57
2022-12-31T12:41:58.569Z,75.67
2022-12-31T12:42:58.549Z,75.57
2022-12-31T12:43:58.544Z,75.37
2022-12-31T12:44:58.533Z,75.37
2022-12-31T12:45:58.552Z,75.54
2022-12-31T12:46:58.632Z,75.37
2022-12-31T12:47:58.584Z,75.47
2022-12-31T12:48:58.475Z,75.37
2022-12-31T12:49:59.171Z,75.34
2022-12-31T12:50:58.455Z,75.34
2022-12-31T12:51:58.505Z,75.43
2022-12-31T12:52:59.740Z,75.43